sensor_id;sensor_type;location;lat;lon;timestamp;temperature;humidity
19924;DHT22;10124;53.068;18.224;2022-08-05T00:01:26;22.00;1.00
19924;DHT22;10124;53.068;18.224;2022-08-05T00:03:55;22.00;1.00
19924;DHT22;10124;53.068;18.224;2022-08-05T00:06:23;21.80;1.00
19924;DHT22;10124;53.068;18.224;2022-08-05T00:08:59;21.70;1.00
19924;DHT22;10124;53.068;18.224;2022-08-05T00:11:27;21.60;1.00
19924;DHT22;10124;53.068;18.224;2022-08-05T00:14:01;21.60;1.00
19924;DHT22;10124;53.068;18.224;2022-08-05T00:16:38;21.50;1.00
19924;DHT22;10124;53.068;18.224;2022-08-05T00:19:21;21.60;1.00
19924;DHT22;10124;53.068;18.224;2022-08-05T00:21:51;21.50;1.00
19924;DHT22;10124;53.068;18.224;2022-08-05T00:24:21;21.40;1.00
19924;DHT22;10124;53.068;18.224;2022-08-05T00:26:51;21.50;1.00
19924;DHT22;10124;53.068;18.224;2022-08-05T00:29:20;21.40;1.00
19924;DHT22;10124;53.068;18.224;2022-08-05T00:31:52;21.40;1.00
19924;DHT22;10124;53.068;18.224;2022-08-05T00:34:40;21.30;1.00
19924;DHT22;10124;53.068;18.224;2022-08-05T00:37:28;21.20;1.00
19924;DHT22;10124;53.068;18.224;2022-08-05T00:40:15;21.10;1.00
19924;DHT22;10124;53.068;18.224;2022-08-05T00:42:57;21.00;1.00
19924;DHT22;10124;53.068;18.224;2022-08-05T00:45:25;21.00;1.00
19924;DHT22;10124;53.068;18.224;2022-08-05T00:48:08;20.90;1.00
19924;DHT22;10124;53.068;18.224;2022-08-05T00:50:40;20.90;1.00
19924;DHT22;10124;53.068;18.224;2022-08-05T00:53:13;20.90;1.00
19924;DHT22;10124;53.068;18.224;2022-08-05T00:56:03;20.90;1.00
19924;DHT22;10124;53.068;18.224;2022-08-05T00:58:30;20.80;1.00
19924;DHT22;10124;53.068;18.224;2022-08-05T01:00:57;20.70;1.00
19924;DHT22;10124;53.068;18.224;2022-08-05T01:03:24;20.70;1.00
19924;DHT22;10124;53.068;18.224;2022-08-05T01:06:00;20.70;1.00
19924;DHT22;10124;53.068;18.224;2022-08-05T01:08:28;20.60;1.00
19924;DHT22;10124;53.068;18.224;2022-08-05T01:11:15;20.50;1.00
19924;DHT22;10124;53.068;18.224;2022-08-05T01:14:08;20.40;1.00
19924;DHT22;10124;53.068;18.224;2022-08-05T01:16:48;20.40;1.00
19924;DHT22;10124;53.068;18.224;2022-08-05T01:22:17;20.30;1.00
19924;DHT22;10124;53.068;18.224;2022-08-05T01:25:04;20.20;1.00
19924;DHT22;10124;53.068;18.224;2022-08-05T01:30:30;20.10;1.00
19924;DHT22;10124;53.068;18.224;2022-08-05T01:33:05;20.00;1.00
19924;DHT22;10124;53.068;18.224;2022-08-05T01:35:38;19.90;1.00
19924;DHT22;10124;53.068;18.224;2022-08-05T01:38:19;19.90;1.00
19924;DHT22;10124;53.068;18.224;2022-08-05T01:40:56;19.80;1.00
19924;DHT22;10124;53.068;18.224;2022-08-05T01:43:26;19.80;1.00
19924;DHT22;10124;53.068;18.224;2022-08-05T01:45:55;19.70;1.00
19924;DHT22;10124;53.068;18.224;2022-08-05T01:48:28;19.60;1.00
19924;DHT22;10124;53.068;18.224;2022-08-05T01:50:58;19.60;1.00
19924;DHT22;10124;53.068;18.224;2022-08-05T01:53:38;19.50;1.00
19924;DHT22;10124;53.068;18.224;2022-08-05T01:56:28;19.40;1.00
19924;DHT22;10124;53.068;18.224;2022-08-05T01:59:18;19.30;1.00
19924;DHT22;10124;53.068;18.224;2022-08-05T02:01:48;19.30;1.00
19924;DHT22;10124;53.068;18.224;2022-08-05T02:04:21;19.30;1.00
19924;DHT22;10124;53.068;18.224;2022-08-05T02:06:51;19.20;1.00
19924;DHT22;10124;53.068;18.224;2022-08-05T02:09:19;19.20;1.00
19924;DHT22;10124;53.068;18.224;2022-08-05T02:11:54;19.10;1.00
19924;DHT22;10124;53.068;18.224;2022-08-05T02:14:48;19.10;1.00
19924;DHT22;10124;53.068;18.224;2022-08-05T02:17:32;19.10;1.00
19924;DHT22;10124;53.068;18.224;2022-08-05T02:20:25;19.10;1.00
19924;DHT22;10124;53.068;18.224;2022-08-05T02:23:06;18.90;1.00
19924;DHT22;10124;53.068;18.224;2022-08-05T02:25:36;18.90;1.00
19924;DHT22;10124;53.068;18.224;2022-08-05T02:28:27;18.90;1.00
19924;DHT22;10124;53.068;18.224;2022-08-05T02:31:27;18.80;1.00
19924;DHT22;10124;53.068;18.224;2022-08-05T02:34:07;18.70;1.00
19924;DHT22;10124;53.068;18.224;2022-08-05T02:36:42;18.60;1.00
19924;DHT22;10124;53.068;18.224;2022-08-05T02:39:11;18.60;1.00
19924;DHT22;10124;53.068;18.224;2022-08-05T02:41:48;18.60;1.00
19924;DHT22;10124;53.068;18.224;2022-08-05T02:44:29;18.60;1.00
19924;DHT22;10124;53.068;18.224;2022-08-05T02:46:58;18.50;1.00
19924;DHT22;10124;53.068;18.224;2022-08-05T02:49:33;18.50;1.00
19924;DHT22;10124;53.068;18.224;2022-08-05T02:52:15;18.40;1.00
19924;DHT22;10124;53.068;18.224;2022-08-05T02:54:56;18.50;1.00
19924;DHT22;10124;53.068;18.224;2022-08-05T02:57:29;18.40;1.00
19924;DHT22;10124;53.068;18.224;2022-08-05T03:00:18;18.40;1.00
19924;DHT22;10124;53.068;18.224;2022-08-05T03:02:47;18.40;1.00
19924;DHT22;10124;53.068;18.224;2022-08-05T03:05:16;18.30;1.00
19924;DHT22;10124;53.068;18.224;2022-08-05T03:08:04;18.20;1.00
19924;DHT22;10124;53.068;18.224;2022-08-05T03:10:35;18.20;1.00
19924;DHT22;10124;53.068;18.224;2022-08-05T03:13:13;18.20;1.00
19924;DHT22;10124;53.068;18.224;2022-08-05T03:15:46;18.20;1.00
19924;DHT22;10124;53.068;18.224;2022-08-05T03:18:18;18.20;1.00
19924;DHT22;10124;53.068;18.224;2022-08-05T03:20:56;18.20;1.00
19924;DHT22;10124;53.068;18.224;2022-08-05T03:23:23;18.20;1.00
19924;DHT22;10124;53.068;18.224;2022-08-05T03:25:51;18.10;1.00
19924;DHT22;10124;53.068;18.224;2022-08-05T03:28:39;18.10;1.00
19924;DHT22;10124;53.068;18.224;2022-08-05T03:31:07;18.00;1.00
19924;DHT22;10124;53.068;18.224;2022-08-05T03:33:34;18.20;1.00
19924;DHT22;10124;53.068;18.224;2022-08-05T03:36:17;18.00;1.00
19924;DHT22;10124;53.068;18.224;2022-08-05T03:38:56;18.00;1.00
19924;DHT22;10124;53.068;18.224;2022-08-05T03:41:24;18.00;1.00
19924;DHT22;10124;53.068;18.224;2022-08-05T03:43:59;18.00;1.00
19924;DHT22;10124;53.068;18.224;2022-08-05T03:46:38;18.00;1.00
19924;DHT22;10124;53.068;18.224;2022-08-05T03:49:05;17.90;1.00
19924;DHT22;10124;53.068;18.224;2022-08-05T03:51:40;17.90;1.00
19924;DHT22;10124;53.068;18.224;2022-08-05T03:54:38;17.90;1.00
19924;DHT22;10124;53.068;18.224;2022-08-05T03:57:29;17.90;1.00
19924;DHT22;10124;53.068;18.224;2022-08-05T04:00:15;17.90;1.00
19924;DHT22;10124;53.068;18.224;2022-08-05T04:02:45;18.00;1.00
19924;DHT22;10124;53.068;18.224;2022-08-05T04:05:28;18.00;1.00
19924;DHT22;10124;53.068;18.224;2022-08-05T04:08:05;18.00;1.00
19924;DHT22;10124;53.068;18.224;2022-08-05T04:10:54;18.00;1.00
19924;DHT22;10124;53.068;18.224;2022-08-05T04:13:21;17.90;1.00
19924;DHT22;10124;53.068;18.224;2022-08-05T04:15:49;17.90;1.00
19924;DHT22;10124;53.068;18.224;2022-08-05T04:18:31;17.90;1.00
19924;DHT22;10124;53.068;18.224;2022-08-05T04:21:01;17.90;1.00
19924;DHT22;10124;53.068;18.224;2022-08-05T04:23:30;17.90;1.00
19924;DHT22;10124;53.068;18.224;2022-08-05T04:26:17;18.00;1.00
19924;DHT22;10124;53.068;18.224;2022-08-05T04:28:47;18.10;1.00
19924;DHT22;10124;53.068;18.224;2022-08-05T04:31:18;18.10;1.00
19924;DHT22;10124;53.068;18.224;2022-08-05T04:33:46;18.10;1.00
19924;DHT22;10124;53.068;18.224;2022-08-05T04:36:34;18.10;1.00
19924;DHT22;10124;53.068;18.224;2022-08-05T04:39:17;18.20;1.00
19924;DHT22;10124;53.068;18.224;2022-08-05T04:41:45;18.30;1.00
19924;DHT22;10124;53.068;18.224;2022-08-05T04:44:14;18.30;1.00
19924;DHT22;10124;53.068;18.224;2022-08-05T04:46:50;18.40;1.00
19924;DHT22;10124;53.068;18.224;2022-08-05T04:49:18;18.40;1.00
19924;DHT22;10124;53.068;18.224;2022-08-05T04:51:50;18.50;1.00
19924;DHT22;10124;53.068;18.224;2022-08-05T04:54:26;18.60;1.00
19924;DHT22;10124;53.068;18.224;2022-08-05T04:56:54;18.60;1.00
19924;DHT22;10124;53.068;18.224;2022-08-05T04:59:25;18.70;1.00
19924;DHT22;10124;53.068;18.224;2022-08-05T05:02:07;18.70;1.00
19924;DHT22;10124;53.068;18.224;2022-08-05T05:04:54;18.80;1.00
19924;DHT22;10124;53.068;18.224;2022-08-05T05:07:29;18.90;1.00
19924;DHT22;10124;53.068;18.224;2022-08-05T05:10:01;19.10;1.00
19924;DHT22;10124;53.068;18.224;2022-08-05T05:12:32;19.20;1.00
19924;DHT22;10124;53.068;18.224;2022-08-05T05:15:03;19.40;1.00
19924;DHT22;10124;53.068;18.224;2022-08-05T05:17:41;19.50;1.00
19924;DHT22;10124;53.068;18.224;2022-08-05T05:20:23;19.60;1.00
19924;DHT22;10124;53.068;18.224;2022-08-05T05:22:56;19.80;1.00
19924;DHT22;10124;53.068;18.224;2022-08-05T05:25:24;20.00;1.00
19924;DHT22;10124;53.068;18.224;2022-08-05T05:28:08;20.10;1.00
19924;DHT22;10124;53.068;18.224;2022-08-05T05:30:36;20.40;1.00
19924;DHT22;10124;53.068;18.224;2022-08-05T05:33:05;20.70;1.00
19924;DHT22;10124;53.068;18.224;2022-08-05T05:35:44;20.90;1.00
19924;DHT22;10124;53.068;18.224;2022-08-05T05:38:14;21.10;1.00
19924;DHT22;10124;53.068;18.224;2022-08-05T05:40:56;21.20;1.00
19924;DHT22;10124;53.068;18.224;2022-08-05T05:43:24;21.40;1.00
19924;DHT22;10124;53.068;18.224;2022-08-05T05:46:11;21.60;1.00
19924;DHT22;10124;53.068;18.224;2022-08-05T05:48:44;21.80;1.00
19924;DHT22;10124;53.068;18.224;2022-08-05T05:51:24;21.90;1.00
19924;DHT22;10124;53.068;18.224;2022-08-05T05:53:54;22.00;1.00
19924;DHT22;10124;53.068;18.224;2022-08-05T05:56:30;22.20;1.00
19924;DHT22;10124;53.068;18.224;2022-08-05T05:59:02;22.50;1.00
19924;DHT22;10124;53.068;18.224;2022-08-05T06:01:37;22.70;1.00
19924;DHT22;10124;53.068;18.224;2022-08-05T06:04:07;22.90;1.00
19924;DHT22;10124;53.068;18.224;2022-08-05T06:06:43;23.10;1.00
19924;DHT22;10124;53.068;18.224;2022-08-05T06:09:15;23.30;1.00
19924;DHT22;10124;53.068;18.224;2022-08-05T06:11:54;23.40;1.00
19924;DHT22;10124;53.068;18.224;2022-08-05T06:14:29;23.70;1.00
19924;DHT22;10124;53.068;18.224;2022-08-05T06:16:58;23.70;1.00
19924;DHT22;10124;53.068;18.224;2022-08-05T06:19:28;23.90;1.00
19924;DHT22;10124;53.068;18.224;2022-08-05T06:22:03;24.00;1.00
19924;DHT22;10124;53.068;18.224;2022-08-05T06:24:40;24.30;1.00
19924;DHT22;10124;53.068;18.224;2022-08-05T06:27:14;24.50;1.00
19924;DHT22;10124;53.068;18.224;2022-08-05T06:30:03;24.70;1.00
19924;DHT22;10124;53.068;18.224;2022-08-05T06:32:46;24.80;1.00
19924;DHT22;10124;53.068;18.224;2022-08-05T06:35:17;24.90;1.00
19924;DHT22;10124;53.068;18.224;2022-08-05T06:38:29;25.10;1.00
19924;DHT22;10124;53.068;18.224;2022-08-05T06:41:04;25.20;1.00
19924;DHT22;10124;53.068;18.224;2022-08-05T06:43:35;25.40;1.00
19924;DHT22;10124;53.068;18.224;2022-08-05T06:46:23;25.50;1.00
19924;DHT22;10124;53.068;18.224;2022-08-05T06:48:57;25.80;1.00
19924;DHT22;10124;53.068;18.224;2022-08-05T06:51:27;25.90;1.00
19924;DHT22;10124;53.068;18.224;2022-08-05T06:53:59;26.00;1.00
19924;DHT22;10124;53.068;18.224;2022-08-05T06:56:28;26.30;1.00
19924;DHT22;10124;53.068;18.224;2022-08-05T06:59:05;26.40;1.00
19924;DHT22;10124;53.068;18.224;2022-08-05T07:01:36;26.70;1.00
19924;DHT22;10124;53.068;18.224;2022-08-05T07:04:09;26.70;1.00
19924;DHT22;10124;53.068;18.224;2022-08-05T07:06:36;26.90;1.00
19924;DHT22;10124;53.068;18.224;2022-08-05T07:09:04;27.00;1.00
19924;DHT22;10124;53.068;18.224;2022-08-05T07:11:32;27.20;1.00
19924;DHT22;10124;53.068;18.224;2022-08-05T07:14:05;27.30;1.00
19924;DHT22;10124;53.068;18.224;2022-08-05T07:16:58;27.30;1.00
19924;DHT22;10124;53.068;18.224;2022-08-05T07:19:48;27.50;1.00
19924;DHT22;10124;53.068;18.224;2022-08-05T07:22:37;27.90;1.00
19924;DHT22;10124;53.068;18.224;2022-08-05T07:25:05;28.30;1.00
19924;DHT22;10124;53.068;18.224;2022-08-05T07:27:54;28.40;1.00
19924;DHT22;10124;53.068;18.224;2022-08-05T07:30:34;28.50;1.00
19924;DHT22;10124;53.068;18.224;2022-08-05T07:33:10;28.80;1.00
19924;DHT22;10124;53.068;18.224;2022-08-05T07:35:44;29.30;1.00
19924;DHT22;10124;53.068;18.224;2022-08-05T07:38:33;29.70;1.00
19924;DHT22;10124;53.068;18.224;2022-08-05T07:41:16;30.20;1.00
19924;DHT22;10124;53.068;18.224;2022-08-05T07:44:06;31.20;1.00
19924;DHT22;10124;53.068;18.224;2022-08-05T07:46:45;31.90;1.00
19924;DHT22;10124;53.068;18.224;2022-08-05T07:49:15;32.30;1.00
19924;DHT22;10124;53.068;18.224;2022-08-05T07:51:44;33.00;1.00
19924;DHT22;10124;53.068;18.224;2022-08-05T07:54:24;33.30;1.00
19924;DHT22;10124;53.068;18.224;2022-08-05T07:57:03;33.70;1.00
19924;DHT22;10124;53.068;18.224;2022-08-05T07:59:52;34.00;1.00
19924;DHT22;10124;53.068;18.224;2022-08-05T08:02:27;34.90;1.00
19924;DHT22;10124;53.068;18.224;2022-08-05T08:05:15;35.50;1.00
19924;DHT22;10124;53.068;18.224;2022-08-05T08:07:43;35.60;1.00
19924;DHT22;10124;53.068;18.224;2022-08-05T08:10:27;35.70;1.00
19924;DHT22;10124;53.068;18.224;2022-08-05T08:12:56;36.00;1.00
19924;DHT22;10124;53.068;18.224;2022-08-05T08:15:24;35.90;1.00
19924;DHT22;10124;53.068;18.224;2022-08-05T08:18:12;35.80;1.00
19924;DHT22;10124;53.068;18.224;2022-08-05T08:20:43;35.50;1.00
19924;DHT22;10124;53.068;18.224;2022-08-05T08:23:30;34.90;1.00
19924;DHT22;10124;53.068;18.224;2022-08-05T08:26:19;35.00;1.00
19924;DHT22;10124;53.068;18.224;2022-08-05T08:28:58;35.20;1.00
19924;DHT22;10124;53.068;18.224;2022-08-05T08:31:45;35.00;1.00
19924;DHT22;10124;53.068;18.224;2022-08-05T08:34:18;35.00;1.00
19924;DHT22;10124;53.068;18.224;2022-08-05T08:36:59;35.50;1.00
19924;DHT22;10124;53.068;18.224;2022-08-05T08:39:32;35.50;1.00
19924;DHT22;10124;53.068;18.224;2022-08-05T08:42:05;35.20;1.00
19924;DHT22;10124;53.068;18.224;2022-08-05T08:44:54;35.30;1.00
19924;DHT22;10124;53.068;18.224;2022-08-05T08:47:45;35.80;1.00
19924;DHT22;10124;53.068;18.224;2022-08-05T08:50:36;35.40;1.00
19924;DHT22;10124;53.068;18.224;2022-08-05T08:53:26;35.40;1.00
19924;DHT22;10124;53.068;18.224;2022-08-05T08:55:55;35.00;1.00
19924;DHT22;10124;53.068;18.224;2022-08-05T08:58:31;34.80;1.00
19924;DHT22;10124;53.068;18.224;2022-08-05T09:01:11;34.80;1.00
19924;DHT22;10124;53.068;18.224;2022-08-05T09:03:50;35.60;1.00
19924;DHT22;10124;53.068;18.224;2022-08-05T09:06:27;36.00;1.00
19924;DHT22;10124;53.068;18.224;2022-08-05T09:08:58;36.40;1.00
19924;DHT22;10124;53.068;18.224;2022-08-05T09:11:28;37.20;1.00
19924;DHT22;10124;53.068;18.224;2022-08-05T09:14:15;37.30;1.00
19924;DHT22;10124;53.068;18.224;2022-08-05T09:17:06;38.10;1.00
19924;DHT22;10124;53.068;18.224;2022-08-05T09:19:42;37.90;1.00
19924;DHT22;10124;53.068;18.224;2022-08-05T09:25:32;37.70;1.00
19924;DHT22;10124;53.068;18.224;2022-08-05T09:28:21;38.10;1.00
19924;DHT22;10124;53.068;18.224;2022-08-05T09:31:07;39.10;1.00
19924;DHT22;10124;53.068;18.224;2022-08-05T09:33:57;38.50;1.00
19924;DHT22;10124;53.068;18.224;2022-08-05T09:36:44;38.50;1.00
19924;DHT22;10124;53.068;18.224;2022-08-05T09:39:26;38.50;1.00
19924;DHT22;10124;53.068;18.224;2022-08-05T09:42:20;38.90;1.00
19924;DHT22;10124;53.068;18.224;2022-08-05T09:44:55;38.50;1.00
19924;DHT22;10124;53.068;18.224;2022-08-05T09:47:42;39.10;1.00
19924;DHT22;10124;53.068;18.224;2022-08-05T09:50:33;39.30;1.00
19924;DHT22;10124;53.068;18.224;2022-08-05T09:53:05;39.30;1.00
19924;DHT22;10124;53.068;18.224;2022-08-05T09:55:35;38.70;1.00
19924;DHT22;10124;53.068;18.224;2022-08-05T09:58:24;39.40;1.00
19924;DHT22;10124;53.068;18.224;2022-08-05T10:03:23;39.80;1.00
19924;DHT22;10124;53.068;18.224;2022-08-05T10:06:11;39.80;1.00
19924;DHT22;10124;53.068;18.224;2022-08-05T10:08:41;40.10;1.00
19924;DHT22;10124;53.068;18.224;2022-08-05T10:11:20;40.40;1.00
19924;DHT22;10124;53.068;18.224;2022-08-05T10:13:48;40.10;1.00
19924;DHT22;10124;53.068;18.224;2022-08-05T10:16:33;39.60;1.00
19924;DHT22;10124;53.068;18.224;2022-08-05T10:19:08;39.90;1.00
19924;DHT22;10124;53.068;18.224;2022-08-05T10:21:38;40.30;1.00
19924;DHT22;10124;53.068;18.224;2022-08-05T10:24:12;39.60;1.00
19924;DHT22;10124;53.068;18.224;2022-08-05T10:26:42;40.50;1.00
19924;DHT22;10124;53.068;18.224;2022-08-05T10:29:19;39.60;1.00
19924;DHT22;10124;53.068;18.224;2022-08-05T10:32:08;40.10;1.00
19924;DHT22;10124;53.068;18.224;2022-08-05T10:34:55;40.60;1.00
19924;DHT22;10124;53.068;18.224;2022-08-05T10:37:29;40.40;1.00
19924;DHT22;10124;53.068;18.224;2022-08-05T10:40:35;39.80;1.00
19924;DHT22;10124;53.068;18.224;2022-08-05T10:43:42;39.80;1.00
19924;DHT22;10124;53.068;18.224;2022-08-05T10:46:17;39.50;1.00
19924;DHT22;10124;53.068;18.224;2022-08-05T10:48:55;39.60;1.00
19924;DHT22;10124;53.068;18.224;2022-08-05T10:51:44;40.50;1.00
19924;DHT22;10124;53.068;18.224;2022-08-05T10:54:46;40.90;1.00
19924;DHT22;10124;53.068;18.224;2022-08-05T10:57:27;41.00;1.00
19924;DHT22;10124;53.068;18.224;2022-08-05T11:00:15;40.90;1.00
19924;DHT22;10124;53.068;18.224;2022-08-05T11:06:04;41.60;1.00
19924;DHT22;10124;53.068;18.224;2022-08-05T11:08:35;41.10;1.00
19924;DHT22;10124;53.068;18.224;2022-08-05T11:11:58;40.70;1.00
19924;DHT22;10124;53.068;18.224;2022-08-05T11:17:24;41.90;1.00
19924;DHT22;10124;53.068;18.224;2022-08-05T11:20:40;41.80;1.00
19924;DHT22;10124;53.068;18.224;2022-08-05T11:26:23;41.70;1.00
19924;DHT22;10124;53.068;18.224;2022-08-05T11:29:00;41.80;1.00
19924;DHT22;10124;53.068;18.224;2022-08-05T11:31:43;41.80;1.00
19924;DHT22;10124;53.068;18.224;2022-08-05T11:34:35;42.30;1.00
19924;DHT22;10124;53.068;18.224;2022-08-05T11:37:03;41.90;1.00
19924;DHT22;10124;53.068;18.224;2022-08-05T11:39:51;41.50;1.00
19924;DHT22;10124;53.068;18.224;2022-08-05T11:42:31;41.40;1.00
19924;DHT22;10124;53.068;18.224;2022-08-05T11:45:07;41.10;1.00
19924;DHT22;10124;53.068;18.224;2022-08-05T11:47:56;41.20;1.00
19924;DHT22;10124;53.068;18.224;2022-08-05T11:50:25;41.10;1.00
19924;DHT22;10124;53.068;18.224;2022-08-05T11:52:53;41.50;1.00
19924;DHT22;10124;53.068;18.224;2022-08-05T11:55:24;41.60;1.00
19924;DHT22;10124;53.068;18.224;2022-08-05T11:58:00;41.00;1.00
19924;DHT22;10124;53.068;18.224;2022-08-05T12:00:37;41.10;1.00
19924;DHT22;10124;53.068;18.224;2022-08-05T12:03:17;41.00;1.00
19924;DHT22;10124;53.068;18.224;2022-08-05T12:06:02;41.80;1.00
19924;DHT22;10124;53.068;18.224;2022-08-05T12:08:40;41.70;1.00
19924;DHT22;10124;53.068;18.224;2022-08-05T12:11:28;41.20;1.00
19924;DHT22;10124;53.068;18.224;2022-08-05T12:14:07;40.70;1.00
19924;DHT22;10124;53.068;18.224;2022-08-05T12:16:38;40.50;1.00
19924;DHT22;10124;53.068;18.224;2022-08-05T12:19:08;40.30;1.00
19924;DHT22;10124;53.068;18.224;2022-08-05T12:21:57;40.20;1.00
19924;DHT22;10124;53.068;18.224;2022-08-05T12:24:27;40.50;1.00
19924;DHT22;10124;53.068;18.224;2022-08-05T12:26:56;40.50;1.00
19924;DHT22;10124;53.068;18.224;2022-08-05T12:29:25;40.40;1.00
19924;DHT22;10124;53.068;18.224;2022-08-05T12:34:27;40.40;1.00
19924;DHT22;10124;53.068;18.224;2022-08-05T12:37:00;40.10;1.00
19924;DHT22;10124;53.068;18.224;2022-08-05T12:39:34;39.80;1.00
19924;DHT22;10124;53.068;18.224;2022-08-05T12:42:16;40.20;1.00
19924;DHT22;10124;53.068;18.224;2022-08-05T12:44:46;40.10;1.00
19924;DHT22;10124;53.068;18.224;2022-08-05T12:47:28;39.90;1.00
19924;DHT22;10124;53.068;18.224;2022-08-05T12:54:00;39.50;1.00
19924;DHT22;10124;53.068;18.224;2022-08-05T12:56:30;38.40;1.00
19924;DHT22;10124;53.068;18.224;2022-08-05T13:04:38;38.00;1.00
19924;DHT22;10124;53.068;18.224;2022-08-05T13:07:23;38.30;1.00
19924;DHT22;10124;53.068;18.224;2022-08-05T13:10:15;38.40;1.00
19924;DHT22;10124;53.068;18.224;2022-08-05T13:12:47;39.00;1.00
19924;DHT22;10124;53.068;18.224;2022-08-05T13:15:30;39.70;1.00
19924;DHT22;10124;53.068;18.224;2022-08-05T13:18:19;40.30;1.00
19924;DHT22;10124;53.068;18.224;2022-08-05T13:20:47;39.90;1.00
19924;DHT22;10124;53.068;18.224;2022-08-05T13:23:17;40.00;1.00
19924;DHT22;10124;53.068;18.224;2022-08-05T13:25:50;39.80;1.00
19924;DHT22;10124;53.068;18.224;2022-08-05T13:28:27;40.40;1.00
19924;DHT22;10124;53.068;18.224;2022-08-05T13:30:56;39.30;1.00
19924;DHT22;10124;53.068;18.224;2022-08-05T13:33:51;38.80;1.00
19924;DHT22;10124;53.068;18.224;2022-08-05T13:37:08;38.80;1.00
19924;DHT22;10124;53.068;18.224;2022-08-05T13:39:35;38.70;1.00
19924;DHT22;10124;53.068;18.224;2022-08-05T13:42:24;38.90;1.00
19924;DHT22;10124;53.068;18.224;2022-08-05T13:44:53;39.00;1.00
19924;DHT22;10124;53.068;18.224;2022-08-05T13:47:23;39.30;1.00
19924;DHT22;10124;53.068;18.224;2022-08-05T13:50:03;39.70;1.00
19924;DHT22;10124;53.068;18.224;2022-08-05T13:52:37;40.50;1.00
19924;DHT22;10124;53.068;18.224;2022-08-05T13:55:07;40.20;1.00
19924;DHT22;10124;53.068;18.224;2022-08-05T13:57:36;39.80;1.00
19924;DHT22;10124;53.068;18.224;2022-08-05T14:00:19;40.10;1.00
19924;DHT22;10124;53.068;18.224;2022-08-05T14:02:55;39.70;1.00
19924;DHT22;10124;53.068;18.224;2022-08-05T14:05:23;39.70;1.00
19924;DHT22;10124;53.068;18.224;2022-08-05T14:08:11;40.30;1.00
19924;DHT22;10124;53.068;18.224;2022-08-05T14:10:54;41.10;1.00
19924;DHT22;10124;53.068;18.224;2022-08-05T14:13:42;40.40;1.00
19924;DHT22;10124;53.068;18.224;2022-08-05T14:16:14;39.40;1.00
19924;DHT22;10124;53.068;18.224;2022-08-05T14:18:45;39.10;1.00
19924;DHT22;10124;53.068;18.224;2022-08-05T14:21:12;39.40;1.00
19924;DHT22;10124;53.068;18.224;2022-08-05T14:24:03;39.50;1.00
19924;DHT22;10124;53.068;18.224;2022-08-05T14:26:55;39.20;1.00
19924;DHT22;10124;53.068;18.224;2022-08-05T14:29:42;39.70;1.00
19924;DHT22;10124;53.068;18.224;2022-08-05T14:32:17;39.40;1.00
19924;DHT22;10124;53.068;18.224;2022-08-05T14:34:54;38.60;1.00
19924;DHT22;10124;53.068;18.224;2022-08-05T14:37:24;38.70;1.00
19924;DHT22;10124;53.068;18.224;2022-08-05T14:40:12;39.10;1.00
19924;DHT22;10124;53.068;18.224;2022-08-05T14:42:43;38.90;1.00
19924;DHT22;10124;53.068;18.224;2022-08-05T14:45:10;38.20;1.00
19924;DHT22;10124;53.068;18.224;2022-08-05T14:47:37;37.90;1.00
19924;DHT22;10124;53.068;18.224;2022-08-05T14:50:26;37.80;1.00
19924;DHT22;10124;53.068;18.224;2022-08-05T14:52:53;37.70;1.00
19924;DHT22;10124;53.068;18.224;2022-08-05T14:55:27;38.30;1.00
19924;DHT22;10124;53.068;18.224;2022-08-05T14:58:07;38.50;1.00
19924;DHT22;10124;53.068;18.224;2022-08-05T15:00:39;38.70;1.00
19924;DHT22;10124;53.068;18.224;2022-08-05T15:03:30;39.10;1.00
19924;DHT22;10124;53.068;18.224;2022-08-05T15:06:01;38.90;1.00
19924;DHT22;10124;53.068;18.224;2022-08-05T15:08:40;38.20;1.00
19924;DHT22;10124;53.068;18.224;2022-08-05T15:11:27;37.20;1.00
19924;DHT22;10124;53.068;18.224;2022-08-05T15:14:15;36.20;1.00
19924;DHT22;10124;53.068;18.224;2022-08-05T15:17:02;35.60;1.00
19924;DHT22;10124;53.068;18.224;2022-08-05T15:19:31;34.90;1.00
19924;DHT22;10124;53.068;18.224;2022-08-05T15:21:58;35.00;1.00
19924;DHT22;10124;53.068;18.224;2022-08-05T15:24:27;35.00;1.00
19924;DHT22;10124;53.068;18.224;2022-08-05T15:26:55;34.70;1.00
19924;DHT22;10124;53.068;18.224;2022-08-05T15:29:23;34.40;1.00
19924;DHT22;10124;53.068;18.224;2022-08-05T15:31:57;34.40;1.00
19924;DHT22;10124;53.068;18.224;2022-08-05T15:34:29;34.30;1.00
19924;DHT22;10124;53.068;18.224;2022-08-05T15:37:02;34.00;1.00
19924;DHT22;10124;53.068;18.224;2022-08-05T15:39:41;33.70;1.00
19924;DHT22;10124;53.068;18.224;2022-08-05T15:42:28;33.50;1.00
19924;DHT22;10124;53.068;18.224;2022-08-05T15:45:16;33.60;1.00
19924;DHT22;10124;53.068;18.224;2022-08-05T15:47:53;33.30;1.00
19924;DHT22;10124;53.068;18.224;2022-08-05T15:50:23;33.30;1.00
19924;DHT22;10124;53.068;18.224;2022-08-05T15:52:51;33.20;1.00
19924;DHT22;10124;53.068;18.224;2022-08-05T15:55:22;33.10;1.00
19924;DHT22;10124;53.068;18.224;2022-08-05T15:58:10;33.10;1.00
19924;DHT22;10124;53.068;18.224;2022-08-05T16:00:43;33.10;1.00
19924;DHT22;10124;53.068;18.224;2022-08-05T16:03:31;33.00;1.00
19924;DHT22;10124;53.068;18.224;2022-08-05T16:06:00;33.20;1.00
19924;DHT22;10124;53.068;18.224;2022-08-05T16:08:28;33.10;1.00
19924;DHT22;10124;53.068;18.224;2022-08-05T16:10:57;33.10;1.00
19924;DHT22;10124;53.068;18.224;2022-08-05T16:13:26;33.10;1.00
19924;DHT22;10124;53.068;18.224;2022-08-05T16:16:04;32.90;1.00
19924;DHT22;10124;53.068;18.224;2022-08-05T16:18:32;32.80;1.00
19924;DHT22;10124;53.068;18.224;2022-08-05T16:21:02;32.70;1.00
19924;DHT22;10124;53.068;18.224;2022-08-05T16:23:31;32.60;1.00
19924;DHT22;10124;53.068;18.224;2022-08-05T16:26:19;32.80;1.00
19924;DHT22;10124;53.068;18.224;2022-08-05T16:28:53;32.60;1.00
19924;DHT22;10124;53.068;18.224;2022-08-05T16:31:21;32.40;1.00
19924;DHT22;10124;53.068;18.224;2022-08-05T16:33:49;32.50;1.00
19924;DHT22;10124;53.068;18.224;2022-08-05T16:36:19;32.40;1.00
19924;DHT22;10124;53.068;18.224;2022-08-05T16:38:52;32.30;1.00
19924;DHT22;10124;53.068;18.224;2022-08-05T16:41:22;32.20;1.00
19924;DHT22;10124;53.068;18.224;2022-08-05T16:44:13;32.10;1.00
19924;DHT22;10124;53.068;18.224;2022-08-05T16:46:43;32.20;1.00
19924;DHT22;10124;53.068;18.224;2022-08-05T16:49:22;32.10;1.00
19924;DHT22;10124;53.068;18.224;2022-08-05T16:55:12;32.00;1.00
19924;DHT22;10124;53.068;18.224;2022-08-05T16:57:41;31.80;1.00
19924;DHT22;10124;53.068;18.224;2022-08-05T17:00:27;31.90;1.00
19924;DHT22;10124;53.068;18.224;2022-08-05T17:03:01;31.70;1.00
19924;DHT22;10124;53.068;18.224;2022-08-05T17:06:40;31.60;1.00
19924;DHT22;10124;53.068;18.224;2022-08-05T17:13:39;31.50;1.00
19924;DHT22;10124;53.068;18.224;2022-08-05T17:16:08;31.30;1.00